sensor_id;sensor_type;location;lat;lon;timestamp;temperature;humidity
19017;DHT22;9641;51.494;6.670;2023-04-30T00:01:25;8.30;99.90
19017;DHT22;9641;51.494;6.670;2023-04-30T00:03:52;8.20;99.90
19017;DHT22;9641;51.494;6.670;2023-04-30T00:06:20;8.20;99.90
19017;DHT22;9641;51.494;6.670;2023-04-30T00:08:47;8.20;99.90
19017;DHT22;9641;51.494;6.670;2023-04-30T00:11:14;8.10;99.90
19017;DHT22;9641;51.494;6.670;2023-04-30T00:13:41;8.10;99.90
19017;DHT22;9641;51.494;6.670;2023-04-30T00:16:08;8.10;99.90
19017;DHT22;9641;51.494;6.670;2023-04-30T00:18:35;8.10;99.90
19017;DHT22;9641;51.494;6.670;2023-04-30T00:21:03;8.10;99.90
19017;DHT22;9641;51.494;6.670;2023-04-30T00:23:31;8.00;99.90
19017;DHT22;9641;51.494;6.670;2023-04-30T00:25:58;8.10;99.90
19017;DHT22;9641;51.494;6.670;2023-04-30T00:28:25;8.00;99.90
19017;DHT22;9641;51.494;6.670;2023-04-30T00:30:52;8.00;99.90
19017;DHT22;9641;51.494;6.670;2023-04-30T00:33:18;8.00;99.90
19017;DHT22;9641;51.494;6.670;2023-04-30T00:35:46;7.90;99.90
19017;DHT22;9641;51.494;6.670;2023-04-30T00:38:13;8.00;99.90
19017;DHT22;9641;51.494;6.670;2023-04-30T00:40:41;7.90;99.90
19017;DHT22;9641;51.494;6.670;2023-04-30T00:43:09;7.90;99.90
19017;DHT22;9641;51.494;6.670;2023-04-30T00:45:36;7.80;99.90
19017;DHT22;9641;51.494;6.670;2023-04-30T00:48:03;7.80;99.90
19017;DHT22;9641;51.494;6.670;2023-04-30T00:50:30;7.70;99.90
19017;DHT22;9641;51.494;6.670;2023-04-30T00:52:57;7.70;99.90
19017;DHT22;9641;51.494;6.670;2023-04-30T00:55:26;7.70;99.90
19017;DHT22;9641;51.494;6.670;2023-04-30T00:57:54;7.60;99.90
19017;DHT22;9641;51.494;6.670;2023-04-30T01:00:21;7.50;99.90
19017;DHT22;9641;51.494;6.670;2023-04-30T01:02:48;7.50;99.90
19017;DHT22;9641;51.494;6.670;2023-04-30T01:05:18;7.50;99.90
19017;DHT22;9641;51.494;6.670;2023-04-30T01:07:45;7.40;99.90
19017;DHT22;9641;51.494;6.670;2023-04-30T01:10:12;7.30;99.90
19017;DHT22;9641;51.494;6.670;2023-04-30T01:12:45;7.30;99.90
19017;DHT22;9641;51.494;6.670;2023-04-30T01:15:22;7.40;99.90
19017;DHT22;9641;51.494;6.670;2023-04-30T01:17:54;7.40;99.90
19017;DHT22;9641;51.494;6.670;2023-04-30T01:20:23;7.40;99.90
19017;DHT22;9641;51.494;6.670;2023-04-30T01:22:54;7.40;99.90
19017;DHT22;9641;51.494;6.670;2023-04-30T01:28:18;7.40;99.90
19017;DHT22;9641;51.494;6.670;2023-04-30T01:30:46;7.30;99.90
19017;DHT22;9641;51.494;6.670;2023-04-30T01:33:13;7.20;99.90
19017;DHT22;9641;51.494;6.670;2023-04-30T01:35:57;7.10;99.90
19017;DHT22;9641;51.494;6.670;2023-04-30T01:38:40;7.10;99.90
19017;DHT22;9641;51.494;6.670;2023-04-30T01:41:19;7.20;99.90
19017;DHT22;9641;51.494;6.670;2023-04-30T01:44:01;7.10;99.90
19017;DHT22;9641;51.494;6.670;2023-04-30T01:46:30;7.20;99.90
19017;DHT22;9641;51.494;6.670;2023-04-30T01:49:05;7.20;99.90
19017;DHT22;9641;51.494;6.670;2023-04-30T01:51:39;7.20;99.90
19017;DHT22;9641;51.494;6.670;2023-04-30T01:54:12;7.10;99.90
19017;DHT22;9641;51.494;6.670;2023-04-30T01:56:55;7.10;99.90
19017;DHT22;9641;51.494;6.670;2023-04-30T01:59:30;7.10;99.90
19017;DHT22;9641;51.494;6.670;2023-04-30T02:01:58;7.10;99.90
19017;DHT22;9641;51.494;6.670;2023-04-30T02:04:25;7.10;99.90
19017;DHT22;9641;51.494;6.670;2023-04-30T02:06:52;7.00;99.90
19017;DHT22;9641;51.494;6.670;2023-04-30T02:09:19;7.00;99.90
19017;DHT22;9641;51.494;6.670;2023-04-30T02:11:48;6.90;99.90
19017;DHT22;9641;51.494;6.670;2023-04-30T02:14:15;6.90;99.90
19017;DHT22;9641;51.494;6.670;2023-04-30T02:16:43;6.80;99.90
19017;DHT22;9641;51.494;6.670;2023-04-30T02:19:10;6.80;99.90
19017;DHT22;9641;51.494;6.670;2023-04-30T02:21:37;6.70;99.90
19017;DHT22;9641;51.494;6.670;2023-04-30T02:24:04;6.70;99.90
19017;DHT22;9641;51.494;6.670;2023-04-30T02:26:32;6.70;99.90
19017;DHT22;9641;51.494;6.670;2023-04-30T02:28:58;6.80;99.90
19017;DHT22;9641;51.494;6.670;2023-04-30T02:31:25;6.80;99.90
19017;DHT22;9641;51.494;6.670;2023-04-30T02:33:54;6.70;99.90
19017;DHT22;9641;51.494;6.670;2023-04-30T02:36:20;6.70;99.90
19017;DHT22;9641;51.494;6.670;2023-04-30T02:38:47;6.70;99.90
19017;DHT22;9641;51.494;6.670;2023-04-30T02:41:14;6.70;99.90
19017;DHT22;9641;51.494;6.670;2023-04-30T02:43:41;6.70;99.90
19017;DHT22;9641;51.494;6.670;2023-04-30T02:46:08;6.70;99.90
19017;DHT22;9641;51.494;6.670;2023-04-30T02:48:35;6.70;99.90
19017;DHT22;9641;51.494;6.670;2023-04-30T02:51:04;6.70;99.90
19017;DHT22;9641;51.494;6.670;2023-04-30T02:53:31;6.70;99.90
19017;DHT22;9641;51.494;6.670;2023-04-30T02:55:57;6.60;99.90
19017;DHT22;9641;51.494;6.670;2023-04-30T02:58:25;6.70;99.90
19017;DHT22;9641;51.494;6.670;2023-04-30T03:00:52;6.60;99.90
19017;DHT22;9641;51.494;6.670;2023-04-30T03:03:19;6.60;99.90
19017;DHT22;9641;51.494;6.670;2023-04-30T03:05:46;6.50;99.90
19017;DHT22;9641;51.494;6.670;2023-04-30T03:08:15;6.50;99.90
19017;DHT22;9641;51.494;6.670;2023-04-30T03:10:43;6.50;99.90
19017;DHT22;9641;51.494;6.670;2023-04-30T03:13:10;6.50;99.90
19017;DHT22;9641;51.494;6.670;2023-04-30T03:15:36;6.50;99.90
19017;DHT22;9641;51.494;6.670;2023-04-30T03:18:03;6.40;99.90
19017;DHT22;9641;51.494;6.670;2023-04-30T03:20:30;6.40;99.90
19017;DHT22;9641;51.494;6.670;2023-04-30T03:22:57;6.30;99.90
19017;DHT22;9641;51.494;6.670;2023-04-30T03:25:26;6.20;99.90
19017;DHT22;9641;51.494;6.670;2023-04-30T03:27:52;6.10;99.90
19017;DHT22;9641;51.494;6.670;2023-04-30T03:30:20;6.10;99.90
19017;DHT22;9641;51.494;6.670;2023-04-30T03:32:47;6.00;99.90
19017;DHT22;9641;51.494;6.670;2023-04-30T03:35:13;6.10;99.90
19017;DHT22;9641;51.494;6.670;2023-04-30T03:37:41;6.10;99.90
19017;DHT22;9641;51.494;6.670;2023-04-30T03:40:08;6.10;99.90
19017;DHT22;9641;51.494;6.670;2023-04-30T03:42:36;6.10;99.90
19017;DHT22;9641;51.494;6.670;2023-04-30T03:45:04;6.10;99.90
19017;DHT22;9641;51.494;6.670;2023-04-30T03:47:32;6.20;99.90
19017;DHT22;9641;51.494;6.670;2023-04-30T03:50:01;6.20;99.90
19017;DHT22;9641;51.494;6.670;2023-04-30T03:52:28;6.20;99.90
19017;DHT22;9641;51.494;6.670;2023-04-30T03:54:56;6.20;99.90
19017;DHT22;9641;51.494;6.670;2023-04-30T03:57:23;6.20;99.90
19017;DHT22;9641;51.494;6.670;2023-04-30T03:59:51;6.10;99.90
19017;DHT22;9641;51.494;6.670;2023-04-30T04:02:18;6.10;99.90
19017;DHT22;9641;51.494;6.670;2023-04-30T04:04:46;6.10;99.90
19017;DHT22;9641;51.494;6.670;2023-04-30T04:07:13;6.20;99.90
19017;DHT22;9641;51.494;6.670;2023-04-30T04:09:40;6.20;99.90
19017;DHT22;9641;51.494;6.670;2023-04-30T04:12:07;6.20;99.90
19017;DHT22;9641;51.494;6.670;2023-04-30T04:14:35;6.10;99.90
19017;DHT22;9641;51.494;6.670;2023-04-30T04:17:03;6.10;99.90
19017;DHT22;9641;51.494;6.670;2023-04-30T04:19:31;6.10;99.90
19017;DHT22;9641;51.494;6.670;2023-04-30T04:21:58;6.00;99.90
19017;DHT22;9641;51.494;6.670;2023-04-30T04:24:25;6.00;99.90
19017;DHT22;9641;51.494;6.670;2023-04-30T04:26:52;6.00;99.90
19017;DHT22;9641;51.494;6.670;2023-04-30T04:29:20;6.10;99.90
19017;DHT22;9641;51.494;6.670;2023-04-30T04:31:47;6.10;99.90
19017;DHT22;9641;51.494;6.670;2023-04-30T04:34:17;6.10;99.90
19017;DHT22;9641;51.494;6.670;2023-04-30T04:36:45;6.10;99.90
19017;DHT22;9641;51.494;6.670;2023-04-30T04:39:12;6.10;99.90
19017;DHT22;9641;51.494;6.670;2023-04-30T04:41:39;6.10;99.90
19017;DHT22;9641;51.494;6.670;2023-04-30T04:44:07;6.00;99.90
19017;DHT22;9641;51.494;6.670;2023-04-30T04:46:34;6.10;99.90
19017;DHT22;9641;51.494;6.670;2023-04-30T04:49:03;6.10;99.90
19017;DHT22;9641;51.494;6.670;2023-04-30T04:51:31;6.20;99.90
19017;DHT22;9641;51.494;6.670;2023-04-30T04:53:58;6.20;99.90
19017;DHT22;9641;51.494;6.670;2023-04-30T04:56:25;6.20;99.90
19017;DHT22;9641;51.494;6.670;2023-04-30T04:58:52;6.30;99.90
19017;DHT22;9641;51.494;6.670;2023-04-30T05:01:19;6.30;99.90
19017;DHT22;9641;51.494;6.670;2023-04-30T05:03:46;6.30;99.90
19017;DHT22;9641;51.494;6.670;2023-04-30T05:06:13;6.40;99.90
19017;DHT22;9641;51.494;6.670;2023-04-30T05:08:42;6.40;99.90
19017;DHT22;9641;51.494;6.670;2023-04-30T05:11:09;6.50;99.90
19017;DHT22;9641;51.494;6.670;2023-04-30T05:13:36;6.50;99.90
19017;DHT22;9641;51.494;6.670;2023-04-30T05:16:03;6.60;99.90
19017;DHT22;9641;51.494;6.670;2023-04-30T05:18:30;6.60;99.90
19017;DHT22;9641;51.494;6.670;2023-04-30T05:20:57;6.70;99.90
19017;DHT22;9641;51.494;6.670;2023-04-30T05:23:24;6.70;99.90
19017;DHT22;9641;51.494;6.670;2023-04-30T05:25:52;6.80;99.90
19017;DHT22;9641;51.494;6.670;2023-04-30T05:28:19;6.80;99.90
19017;DHT22;9641;51.494;6.670;2023-04-30T05:30:46;6.90;99.90
19017;DHT22;9641;51.494;6.670;2023-04-30T05:33:13;7.00;99.90
19017;DHT22;9641;51.494;6.670;2023-04-30T05:35:40;7.00;99.90
19017;DHT22;9641;51.494;6.670;2023-04-30T05:38:07;7.10;99.90
19017;DHT22;9641;51.494;6.670;2023-04-30T05:40:34;7.20;99.90
19017;DHT22;9641;51.494;6.670;2023-04-30T05:43:02;7.30;99.90
19017;DHT22;9641;51.494;6.670;2023-04-30T05:45:29;7.40;99.90
19017;DHT22;9641;51.494;6.670;2023-04-30T05:47:56;7.40;99.90
19017;DHT22;9641;51.494;6.670;2023-04-30T05:50:23;7.50;99.90
19017;DHT22;9641;51.494;6.670;2023-04-30T05:52:52;7.60;99.90
19017;DHT22;9641;51.494;6.670;2023-04-30T05:55:19;7.70;99.90
19017;DHT22;9641;51.494;6.670;2023-04-30T05:57:46;7.70;99.90
19017;DHT22;9641;51.494;6.670;2023-04-30T06:00:15;7.80;99.90
19017;DHT22;9641;51.494;6.670;2023-04-30T06:02:42;7.90;99.90
19017;DHT22;9641;51.494;6.670;2023-04-30T06:05:09;8.10;99.90
19017;DHT22;9641;51.494;6.670;2023-04-30T06:07:36;8.20;99.90
19017;DHT22;9641;51.494;6.670;2023-04-30T06:10:04;8.20;99.90
19017;DHT22;9641;51.494;6.670;2023-04-30T06:12:31;8.30;99.90
19017;DHT22;9641;51.494;6.670;2023-04-30T06:14:58;8.50;99.90
19017;DHT22;9641;51.494;6.670;2023-04-30T06:17:27;8.60;99.90
19017;DHT22;9641;51.494;6.670;2023-04-30T06:19:54;8.70;99.90
19017;DHT22;9641;51.494;6.670;2023-04-30T06:22:23;8.80;99.90
19017;DHT22;9641;51.494;6.670;2023-04-30T06:24:50;8.90;99.90
19017;DHT22;9641;51.494;6.670;2023-04-30T06:27:17;9.00;99.90
19017;DHT22;9641;51.494;6.670;2023-04-30T06:29:44;9.10;99.90
19017;DHT22;9641;51.494;6.670;2023-04-30T06:32:11;9.20;99.90
19017;DHT22;9641;51.494;6.670;2023-04-30T06:34:39;9.30;99.90
19017;DHT22;9641;51.494;6.670;2023-04-30T06:37:05;9.40;99.90
19017;DHT22;9641;51.494;6.670;2023-04-30T06:39:33;9.60;99.90
19017;DHT22;9641;51.494;6.670;2023-04-30T06:41:59;9.70;99.90
19017;DHT22;9641;51.494;6.670;2023-04-30T06:44:27;9.80;99.90
19017;DHT22;9641;51.494;6.670;2023-04-30T06:46:54;9.90;99.90
19017;DHT22;9641;51.494;6.670;2023-04-30T06:49:21;9.90;99.90
19017;DHT22;9641;51.494;6.670;2023-04-30T06:51:49;9.90;99.90
19017;DHT22;9641;51.494;6.670;2023-04-30T06:54:16;9.90;99.90
19017;DHT22;9641;51.494;6.670;2023-04-30T06:56:43;9.90;99.90
19017;DHT22;9641;51.494;6.670;2023-04-30T06:59:10;10.00;99.90
19017;DHT22;9641;51.494;6.670;2023-04-30T07:01:37;10.10;99.90
19017;DHT22;9641;51.494;6.670;2023-04-30T07:04:05;10.20;99.90
19017;DHT22;9641;51.494;6.670;2023-04-30T07:06:32;10.20;99.90
19017;DHT22;9641;51.494;6.670;2023-04-30T07:09:01;10.20;99.90
19017;DHT22;9641;51.494;6.670;2023-04-30T07:11:28;10.20;99.90
19017;DHT22;9641;51.494;6.670;2023-04-30T07:13:55;10.30;99.90
19017;DHT22;9641;51.494;6.670;2023-04-30T07:16:24;10.40;99.90
19017;DHT22;9641;51.494;6.670;2023-04-30T07:18:52;10.40;99.90
19017;DHT22;9641;51.494;6.670;2023-04-30T07:21:19;10.50;99.90
19017;DHT22;9641;51.494;6.670;2023-04-30T07:23:46;10.50;99.90
19017;DHT22;9641;51.494;6.670;2023-04-30T07:26:14;10.50;99.90
19017;DHT22;9641;51.494;6.670;2023-04-30T07:28:41;10.60;99.90
19017;DHT22;9641;51.494;6.670;2023-04-30T07:31:08;10.70;99.90
19017;DHT22;9641;51.494;6.670;2023-04-30T07:33:35;10.80;99.90
19017;DHT22;9641;51.494;6.670;2023-04-30T07:36:02;10.80;99.90
19017;DHT22;9641;51.494;6.670;2023-04-30T07:38:29;11.00;99.90
19017;DHT22;9641;51.494;6.670;2023-04-30T07:40:55;11.00;99.90
19017;DHT22;9641;51.494;6.670;2023-04-30T07:43:24;11.10;99.90
19017;DHT22;9641;51.494;6.670;2023-04-30T07:45:51;11.10;99.90
19017;DHT22;9641;51.494;6.670;2023-04-30T07:48:18;11.30;99.90
19017;DHT22;9641;51.494;6.670;2023-04-30T07:50:46;11.30;86.20
19017;DHT22;9641;51.494;6.670;2023-04-30T07:53:14;11.40;77.70
19017;DHT22;9641;51.494;6.670;2023-04-30T07:55:40;11.50;72.00
19017;DHT22;9641;51.494;6.670;2023-04-30T07:58:07;11.60;58.20
19017;DHT22;9641;51.494;6.670;2023-04-30T08:00:35;11.50;1.00
19017;DHT22;9641;51.494;6.670;2023-04-30T08:03:02;11.50;44.80
19017;DHT22;9641;51.494;6.670;2023-04-30T08:05:29;11.50;61.90
19017;DHT22;9641;51.494;6.670;2023-04-30T08:07:56;11.60;56.50
19017;DHT22;9641;51.494;6.670;2023-04-30T08:10:23;11.70;24.60
19017;DHT22;9641;51.494;6.670;2023-04-30T08:12:51;11.70;9.90
19017;DHT22;9641;51.494;6.670;2023-04-30T08:15:18;11.80;1.00
19017;DHT22;9641;51.494;6.670;2023-04-30T08:17:47;11.80;1.00
19017;DHT22;9641;51.494;6.670;2023-04-30T08:20:15;11.80;10.60
19017;DHT22;9641;51.494;6.670;2023-04-30T08:22:42;11.80;1.00
19017;DHT22;9641;51.494;6.670;2023-04-30T08:25:10;11.90;1.00
19017;DHT22;9641;51.494;6.670;2023-04-30T08:27:37;11.90;1.00
19017;DHT22;9641;51.494;6.670;2023-04-30T08:30:06;11.90;1.00
19017;DHT22;9641;51.494;6.670;2023-04-30T08:32:34;12.00;1.00
19017;DHT22;9641;51.494;6.670;2023-04-30T08:35:07;12.10;1.00
19017;DHT22;9641;51.494;6.670;2023-04-30T08:37:37;12.20;1.00
19017;DHT22;9641;51.494;6.670;2023-04-30T08:40:05;12.20;1.00
19017;DHT22;9641;51.494;6.670;2023-04-30T08:42:36;12.30;1.00
19017;DHT22;9641;51.494;6.670;2023-04-30T08:45:04;12.40;1.00
19017;DHT22;9641;51.494;6.670;2023-04-30T08:47:32;12.40;1.00
19017;DHT22;9641;51.494;6.670;2023-04-30T08:49:59;12.40;1.00
19017;DHT22;9641;51.494;6.670;2023-04-30T08:52:29;12.40;1.00
19017;DHT22;9641;51.494;6.670;2023-04-30T08:54:56;12.50;1.00
19017;DHT22;9641;51.494;6.670;2023-04-30T08:57:24;12.70;1.00
19017;DHT22;9641;51.494;6.670;2023-04-30T08:59:52;12.80;1.00
19017;DHT22;9641;51.494;6.670;2023-04-30T09:02:19;12.70;99.90
19017;DHT22;9641;51.494;6.670;2023-04-30T09:04:49;12.70;99.90
19017;DHT22;9641;51.494;6.670;2023-04-30T09:07:17;12.80;1.00
19017;DHT22;9641;51.494;6.670;2023-04-30T09:09:45;13.10;1.00
19017;DHT22;9641;51.494;6.670;2023-04-30T09:12:15;13.10;1.00
19017;DHT22;9641;51.494;6.670;2023-04-30T09:15:00;13.10;99.90
19017;DHT22;9641;51.494;6.670;2023-04-30T09:17:27;13.30;11.60
19017;DHT22;9641;51.494;6.670;2023-04-30T09:20:05;13.40;1.00
19017;DHT22;9641;51.494;6.670;2023-04-30T09:22:33;13.40;99.90
19017;DHT22;9641;51.494;6.670;2023-04-30T09:25:02;13.50;1.00
19017;DHT22;9641;51.494;6.670;2023-04-30T09:27:29;13.70;1.00
19017;DHT22;9641;51.494;6.670;2023-04-30T09:29:55;13.80;1.00
19017;DHT22;9641;51.494;6.670;2023-04-30T09:32:23;13.80;99.90
19017;DHT22;9641;51.494;6.670;2023-04-30T09:34:50;14.00;1.00
19017;DHT22;9641;51.494;6.670;2023-04-30T09:37:19;14.00;1.00
19017;DHT22;9641;51.494;6.670;2023-04-30T09:39:46;14.00;1.00
19017;DHT22;9641;51.494;6.670;2023-04-30T09:42:15;14.10;27.60
19017;DHT22;9641;51.494;6.670;2023-04-30T09:44:43;14.10;99.90
19017;DHT22;9641;51.494;6.670;2023-04-30T09:47:11;14.20;1.00
19017;DHT22;9641;51.494;6.670;2023-04-30T09:49:41;14.30;92.50
19017;DHT22;9641;51.494;6.670;2023-04-30T09:52:09;14.30;1.00
19017;DHT22;9641;51.494;6.670;2023-04-30T09:54:38;14.30;1.00
19017;DHT22;9641;51.494;6.670;2023-04-30T09:57:09;14.50;1.00
19017;DHT22;9641;51.494;6.670;2023-04-30T09:59:38;14.70;1.00
19017;DHT22;9641;51.494;6.670;2023-04-30T10:02:08;14.90;1.00
19017;DHT22;9641;51.494;6.670;2023-04-30T10:04:37;15.20;99.90
19017;DHT22;9641;51.494;6.670;2023-04-30T10:07:07;15.50;99.90
19017;DHT22;9641;51.494;6.670;2023-04-30T10:09:38;15.50;99.90
19017;DHT22;9641;51.494;6.670;2023-04-30T10:12:12;15.50;46.20
19017;DHT22;9641;51.494;6.670;2023-04-30T10:14:48;15.50;99.90
19017;DHT22;9641;51.494;6.670;2023-04-30T10:17:17;15.40;99.90
19017;DHT22;9641;51.494;6.670;2023-04-30T10:19:48;15.50;99.90
19017;DHT22;9641;51.494;6.670;2023-04-30T10:22:18;15.60;70.20
19017;DHT22;9641;51.494;6.670;2023-04-30T10:24:46;15.80;1.00
19017;DHT22;9641;51.494;6.670;2023-04-30T10:27:14;16.10;99.90
19017;DHT22;9641;51.494;6.670;2023-04-30T10:29:42;16.10;41.90
19017;DHT22;9641;51.494;6.670;2023-04-30T10:32:11;16.30;1.00
19017;DHT22;9641;51.494;6.670;2023-04-30T10:34:45;16.00;1.00
19017;DHT22;9641;51.494;6.670;2023-04-30T10:37:20;16.00;1.00
19017;DHT22;9641;51.494;6.670;2023-04-30T10:39:50;16.00;1.00
19017;DHT22;9641;51.494;6.670;2023-04-30T10:42:17;16.00;1.00
19017;DHT22;9641;51.494;6.670;2023-04-30T10:44:46;15.90;1.00
19017;DHT22;9641;51.494;6.670;2023-04-30T10:47:13;16.10;1.00
19017;DHT22;9641;51.494;6.670;2023-04-30T10:49:44;16.10;1.00
19017;DHT22;9641;51.494;6.670;2023-04-30T10:52:12;15.60;1.00
19017;DHT22;9641;51.494;6.670;2023-04-30T10:54:40;15.40;1.00
19017;DHT22;9641;51.494;6.670;2023-04-30T10:57:16;15.50;1.00
19017;DHT22;9641;51.494;6.670;2023-04-30T10:59:53;16.00;1.00
19017;DHT22;9641;51.494;6.670;2023-04-30T11:02:20;16.30;1.00
19017;DHT22;9641;51.494;6.670;2023-04-30T11:05:12;16.40;1.00
19017;DHT22;9641;51.494;6.670;2023-04-30T11:07:49;16.30;1.00
19017;DHT22;9641;51.494;6.670;2023-04-30T11:10:20;17.30;1.00
19017;DHT22;9641;51.494;6.670;2023-04-30T11:12:48;19.20;1.00
19017;DHT22;9641;51.494;6.670;2023-04-30T11:15:18;20.30;1.00
19017;DHT22;9641;51.494;6.670;2023-04-30T11:17:47;19.50;1.00
19017;DHT22;9641;51.494;6.670;2023-04-30T11:20:18;18.70;1.00
19017;DHT22;9641;51.494;6.670;2023-04-30T11:22:45;20.10;1.00
19017;DHT22;9641;51.494;6.670;2023-04-30T11:25:12;20.10;1.00
19017;DHT22;9641;51.494;6.670;2023-04-30T11:27:44;20.50;1.00
19017;DHT22;9641;51.494;6.670;2023-04-30T11:30:12;22.20;1.00
19017;DHT22;9641;51.494;6.670;2023-04-30T11:32:43;24.00;99.90
19017;DHT22;9641;51.494;6.670;2023-04-30T11:35:12;24.40;99.90
19017;DHT22;9641;51.494;6.670;2023-04-30T11:37:42;24.10;99.90
19017;DHT22;9641;51.494;6.670;2023-04-30T11:40:11;23.40;99.90
19017;DHT22;9641;51.494;6.670;2023-04-30T11:42:39;22.60;99.90
19017;DHT22;9641;51.494;6.670;2023-04-30T11:45:08;22.70;99.90
19017;DHT22;9641;51.494;6.670;2023-04-30T11:47:39;22.60;99.90
19017;DHT22;9641;51.494;6.670;2023-04-30T11:50:09;22.60;99.90
19017;DHT22;9641;51.494;6.670;2023-04-30T11:52:36;23.50;99.90
19017;DHT22;9641;51.494;6.670;2023-04-30T11:55:13;22.60;99.90
19017;DHT22;9641;51.494;6.670;2023-04-30T11:57:41;21.20;99.90
19017;DHT22;9641;51.494;6.670;2023-04-30T12:00:10;20.60;99.90
19017;DHT22;9641;51.494;6.670;2023-04-30T12:02:38;22.40;99.90
19017;DHT22;9641;51.494;6.670;2023-04-30T12:05:12;23.60;99.90
19017;DHT22;9641;51.494;6.670;2023-04-30T12:07:44;25.20;99.90
19017;DHT22;9641;51.494;6.670;2023-04-30T12:10:12;25.90;99.90
19017;DHT22;9641;51.494;6.670;2023-04-30T12:12:39;24.70;99.90
19017;DHT22;9641;51.494;6.670;2023-04-30T12:15:14;23.10;99.90
19017;DHT22;9641;51.494;6.670;2023-04-30T12:17:41;23.10;99.90
19017;DHT22;9641;51.494;6.670;2023-04-30T12:20:09;23.40;99.90
19017;DHT22;9641;51.494;6.670;2023-04-30T12:22:38;24.10;99.90
19017;DHT22;9641;51.494;6.670;2023-04-30T12:25:07;25.10;99.90
19017;DHT22;9641;51.494;6.670;2023-04-30T12:27:34;24.40;99.90
19017;DHT22;9641;51.494;6.670;2023-04-30T12:30:07;24.10;99.90
19017;DHT22;9641;51.494;6.670;2023-04-30T12:32:42;23.90;99.90
19017;DHT22;9641;51.494;6.670;2023-04-30T12:35:13;24.20;99.90
19017;DHT22;9641;51.494;6.670;2023-04-30T12:37:47;24.70;99.90
19017;DHT22;9641;51.494;6.670;2023-04-30T12:40:17;23.90;99.90
19017;DHT22;9641;51.494;6.670;2023-04-30T12:42:45;23.20;99.90
19017;DHT22;9641;51.494;6.670;2023-04-30T12:45:14;22.30;99.90
19017;DHT22;9641;51.494;6.670;2023-04-30T12:47:59;22.10;99.90
19017;DHT22;9641;51.494;6.670;2023-04-30T12:50:27;22.10;99.90
19017;DHT22;9641;51.494;6.670;2023-04-30T12:53:00;21.00;99.90
19017;DHT22;9641;51.494;6.670;2023-04-30T12:55:27;21.30;99.90
19017;DHT22;9641;51.494;6.670;2023-04-30T12:58:02;22.00;99.90
19017;DHT22;9641;51.494;6.670;2023-04-30T13:00:42;24.20;99.90
19017;DHT22;9641;51.494;6.670;2023-04-30T13:03:10;24.30;99.90
19017;DHT22;9641;51.494;6.670;2023-04-30T13:05:37;24.00;99.90
19017;DHT22;9641;51.494;6.670;2023-04-30T13:08:07;25.90;99.90
19017;DHT22;9641;51.494;6.670;2023-04-30T13:10:34;26.00;99.90
19017;DHT22;9641;51.494;6.670;2023-04-30T13:13:01;25.70;99.90
19017;DHT22;9641;51.494;6.670;2023-04-30T13:15:28;25.00;99.90
19017;DHT22;9641;51.494;6.670;2023-04-30T13:17:54;24.70;99.90
19017;DHT22;9641;51.494;6.670;2023-04-30T13:20:22;25.50;99.90
19017;DHT22;9641;51.494;6.670;2023-04-30T13:22:51;26.20;99.90
19017;DHT22;9641;51.494;6.670;2023-04-30T13:25:19;26.90;99.90
19017;DHT22;9641;51.494;6.670;2023-04-30T13:27:46;25.40;99.90
19017;DHT22;9641;51.494;6.670;2023-04-30T13:30:13;23.70;99.90
19017;DHT22;9641;51.494;6.670;2023-04-30T13:32:40;23.00;99.90
19017;DHT22;9641;51.494;6.670;2023-04-30T13:35:08;22.90;99.90
19017;DHT22;9641;51.494;6.670;2023-04-30T13:37:36;24.20;99.90
19017;DHT22;9641;51.494;6.670;2023-04-30T13:40:04;24.80;99.90
19017;DHT22;9641;51.494;6.670;2023-04-30T13:42:33;23.80;99.90
19017;DHT22;9641;51.494;6.670;2023-04-30T13:44:59;24.40;99.90
19017;DHT22;9641;51.494;6.670;2023-04-30T13:47:26;25.00;99.90
19017;DHT22;9641;51.494;6.670;2023-04-30T13:49:53;25.10;99.90
19017;DHT22;9641;51.494;6.670;2023-04-30T13:52:20;25.80;99.90
19017;DHT22;9641;51.494;6.670;2023-04-30T13:54:47;25.70;99.90
19017;DHT22;9641;51.494;6.670;2023-04-30T13:57:14;25.10;99.90
19017;DHT22;9641;51.494;6.670;2023-04-30T13:59:42;24.00;99.90
19017;DHT22;9641;51.494;6.670;2023-04-30T14:02:09;23.20;99.90
19017;DHT22;9641;51.494;6.670;2023-04-30T14:04:36;22.60;99.90
19017;DHT22;9641;51.494;6.670;2023-04-30T14:07:03;24.30;99.90
19017;DHT22;9641;51.494;6.670;2023-04-30T14:09:30;25.30;99.90
19017;DHT22;9641;51.494;6.670;2023-04-30T14:11:57;24.90;99.90
19017;DHT22;9641;51.494;6.670;2023-04-30T14:14:24;24.40;99.90
19017;DHT22;9641;51.494;6.670;2023-04-30T14:16:53;24.30;99.90
19017;DHT22;9641;51.494;6.670;2023-04-30T14:19:20;25.00;99.90
19017;DHT22;9641;51.494;6.670;2023-04-30T14:21:48;25.80;99.90
19017;DHT22;9641;51.494;6.670;2023-04-30T14:24:14;25.80;99.90
19017;DHT22;9641;51.494;6.670;2023-04-30T14:26:42;25.40;99.90
19017;DHT22;9641;51.494;6.670;2023-04-30T14:29:10;24.80;99.90
19017;DHT22;9641;51.494;6.670;2023-04-30T14:31:37;22.90;99.90
19017;DHT22;9641;51.494;6.670;2023-04-30T14:34:05;21.90;99.90
19017;DHT22;9641;51.494;6.670;2023-04-30T14:36:33;22.00;99.90
19017;DHT22;9641;51.494;6.670;2023-04-30T14:39:00;23.10;99.90
19017;DHT22;9641;51.494;6.670;2023-04-30T14:41:33;24.10;99.90
19017;DHT22;9641;51.494;6.670;2023-04-30T14:44:00;24.10;99.90
19017;DHT22;9641;51.494;6.670;2023-04-30T14:46:29;24.30;99.90
19017;DHT22;9641;51.494;6.670;2023-04-30T14:48:58;25.80;99.90
19017;DHT22;9641;51.494;6.670;2023-04-30T14:51:27;25.80;99.90
19017;DHT22;9641;51.494;6.670;2023-04-30T14:53:54;25.60;99.90
19017;DHT22;9641;51.494;6.670;2023-04-30T14:56:22;25.40;99.90
19017;DHT22;9641;51.494;6.670;2023-04-30T14:58:49;25.60;99.90
19017;DHT22;9641;51.494;6.670;2023-04-30T15:01:16;26.50;99.90
19017;DHT22;9641;51.494;6.670;2023-04-30T15:03:43;27.90;99.90
19017;DHT22;9641;51.494;6.670;2023-04-30T15:06:11;26.60;99.90
19017;DHT22;9641;51.494;6.670;2023-04-30T15:08:39;25.30;99.90
19017;DHT22;9641;51.494;6.670;2023-04-30T15:11:06;25.30;99.90
19017;DHT22;9641;51.494;6.670;2023-04-30T15:13:34;26.00;99.90
19017;DHT22;9641;51.494;6.670;2023-04-30T15:16:01;25.20;99.90
19017;DHT22;9641;51.494;6.670;2023-04-30T15:18:28;24.30;99.90
19017;DHT22;9641;51.494;6.670;2023-04-30T15:20:55;24.20;99.90
19017;DHT22;9641;51.494;6.670;2023-04-30T15:23:21;24.30;99.90
19017;DHT22;9641;51.494;6.670;2023-04-30T15:25:50;23.70;99.90
19017;DHT22;9641;51.494;6.670;2023-04-30T15:28:16;24.40;99.90
19017;DHT22;9641;51.494;6.670;2023-04-30T15:30:43;25.50;99.90
19017;DHT22;9641;51.494;6.670;2023-04-30T15:33:10;26.50;99.90
19017;DHT22;9641;51.494;6.670;2023-04-30T15:35:40;26.50;99.90
19017;DHT22;9641;51.494;6.670;2023-04-30T15:38:07;25.70;99.90
19017;DHT22;9641;51.494;6.670;2023-04-30T15:40:35;24.30;99.90
19017;DHT22;9641;51.494;6.670;2023-04-30T15:43:03;24.20;99.90
19017;DHT22;9641;51.494;6.670;2023-04-30T15:45:31;25.20;99.90
19017;DHT22;9641;51.494;6.670;2023-04-30T15:47:58;26.10;99.90
19017;DHT22;9641;51.494;6.670;2023-04-30T15:50:26;25.30;99.90
19017;DHT22;9641;51.494;6.670;2023-04-30T15:52:53;24.80;99.90
19017;DHT22;9641;51.494;6.670;2023-04-30T15:55:21;24.40;99.90
19017;DHT22;9641;51.494;6.670;2023-04-30T15:57:48;24.00;99.90
19017;DHT22;9641;51.494;6.670;2023-04-30T16:00:16;23.70;99.90
19017;DHT22;9641;51.494;6.670;2023-04-30T16:02:43;22.90;99.90
19017;DHT22;9641;51.494;6.670;2023-04-30T16:05:11;22.60;99.90